sensor_id;sensor_type;location;lat;lon;timestamp;P1;durP1;ratioP1;P2;durP2;ratioP2
6031;SDS011;3044;43.232;27.972;2022-09-09T00:00:57;3.10;;;2.37;;
6031;SDS011;3044;43.232;27.972;2022-09-09T00:03:34;3.87;;;2.40;;
6031;SDS011;3044;43.232;27.972;2022-09-09T00:06:09;4.83;;;2.30;;
6031;SDS011;3044;43.232;27.972;2022-09-09T00:08:49;5.33;;;2.40;;
6031;SDS011;3044;43.232;27.972;2022-09-09T00:11:26;2.40;;;2.20;;
6031;SDS011;3044;43.232;27.972;2022-09-09T00:13:57;3.23;;;1.90;;
6031;SDS011;3044;43.232;27.972;2022-09-09T00:16:29;1.43;;;1.30;;
6031;SDS011;3044;43.232;27.972;2022-09-09T00:19:04;8.73;;;2.40;;
6031;SDS011;3044;43.232;27.972;2022-09-09T00:21:36;4.70;;;1.90;;
6031;SDS011;3044;43.232;27.972;2022-09-09T00:24:08;2.87;;;1.97;;
6031;SDS011;3044;43.232;27.972;2022-09-09T00:26:42;7.30;;;2.13;;
6031;SDS011;3044;43.232;27.972;2022-09-09T00:29:14;5.83;;;1.60;;
6031;SDS011;3044;43.232;27.972;2022-09-09T00:31:53;4.73;;;2.20;;
6031;SDS011;3044;43.232;27.972;2022-09-09T00:34:24;3.80;;;1.73;;
6031;SDS011;3044;43.232;27.972;2022-09-09T00:36:55;4.10;;;1.67;;
6031;SDS011;3044;43.232;27.972;2022-09-09T00:39:25;3.53;;;1.90;;
6031;SDS011;3044;43.232;27.972;2022-09-09T00:42:02;2.20;;;2.00;;
6031;SDS011;3044;43.232;27.972;2022-09-09T00:44:40;2.00;;;1.80;;
6031;SDS011;3044;43.232;27.972;2022-09-09T00:47:26;1.50;;;1.40;;
6031;SDS011;3044;43.232;27.972;2022-09-09T00:50:09;9.83;;;2.17;;
6031;SDS011;3044;43.232;27.972;2022-09-09T00:52:53;3.47;;;1.67;;
6031;SDS011;3044;43.232;27.972;2022-09-09T00:55:28;1.97;;;1.70;;
6031;SDS011;3044;43.232;27.972;2022-09-09T00:58:06;2.33;;;1.50;;
6031;SDS011;3044;43.232;27.972;2022-09-09T01:00:35;2.50;;;1.40;;
6031;SDS011;3044;43.232;27.972;2022-09-09T01:03:17;2.90;;;1.60;;
6031;SDS011;3044;43.232;27.972;2022-09-09T01:05:53;1.90;;;1.77;;
6031;SDS011;3044;43.232;27.972;2022-09-09T01:08:42;3.10;;;1.70;;
6031;SDS011;3044;43.232;27.972;2022-09-09T01:11:31;3.93;;;1.77;;
6031;SDS011;3044;43.232;27.972;2022-09-09T01:14:08;2.77;;;1.43;;
6031;SDS011;3044;43.232;27.972;2022-09-09T01:16:43;4.43;;;2.10;;
6031;SDS011;3044;43.232;27.972;2022-09-09T01:19:14;2.13;;;1.50;;
6031;SDS011;3044;43.232;27.972;2022-09-09T01:21:49;2.33;;;1.80;;
6031;SDS011;3044;43.232;27.972;2022-09-09T01:24:31;2.10;;;1.80;;
6031;SDS011;3044;43.232;27.972;2022-09-09T01:27:06;3.40;;;1.30;;
6031;SDS011;3044;43.232;27.972;2022-09-09T01:29:35;2.17;;;1.77;;
6031;SDS011;3044;43.232;27.972;2022-09-09T01:32:35;4.00;;;1.60;;
6031;SDS011;3044;43.232;27.972;2022-09-09T01:35:08;1.20;;;1.10;;
6031;SDS011;3044;43.232;27.972;2022-09-09T01:37:41;3.70;;;1.73;;
6031;SDS011;3044;43.232;27.972;2022-09-09T01:40:08;2.90;;;1.57;;
6031;SDS011;3044;43.232;27.972;2022-09-09T01:42:37;5.20;;;1.50;;
6031;SDS011;3044;43.232;27.972;2022-09-09T01:45:05;13.97;;;1.70;;
6031;SDS011;3044;43.232;27.972;2022-09-09T01:47:33;1.73;;;1.63;;
6031;SDS011;3044;43.232;27.972;2022-09-09T01:50:01;2.13;;;1.83;;
6031;SDS011;3044;43.232;27.972;2022-09-09T01:52:29;1.80;;;1.70;;
6031;SDS011;3044;43.232;27.972;2022-09-09T01:54:57;1.70;;;1.60;;
6031;SDS011;3044;43.232;27.972;2022-09-09T01:57:25;3.10;;;1.70;;
6031;SDS011;3044;43.232;27.972;2022-09-09T02:00:02;3.83;;;1.50;;
6031;SDS011;3044;43.232;27.972;2022-09-09T02:02:34;2.13;;;1.77;;
6031;SDS011;3044;43.232;27.972;2022-09-09T02:05:09;2.80;;;1.60;;
6031;SDS011;3044;43.232;27.972;2022-09-09T02:07:46;2.13;;;1.57;;
6031;SDS011;3044;43.232;27.972;2022-09-09T02:10:16;3.23;;;1.67;;
6031;SDS011;3044;43.232;27.972;2022-09-09T02:12:47;3.03;;;1.60;;
6031;SDS011;3044;43.232;27.972;2022-09-09T02:15:22;4.00;;;1.90;;
6031;SDS011;3044;43.232;27.972;2022-09-09T02:17:59;1.93;;;1.83;;
6031;SDS011;3044;43.232;27.972;2022-09-09T02:20:32;4.20;;;1.60;;
6031;SDS011;3044;43.232;27.972;2022-09-09T02:22:59;2.03;;;1.90;;
6031;SDS011;3044;43.232;27.972;2022-09-09T02:25:28;2.80;;;2.33;;
6031;SDS011;3044;43.232;27.972;2022-09-09T02:27:56;2.07;;;1.90;;
6031;SDS011;3044;43.232;27.972;2022-09-09T02:30:26;5.63;;;1.97;;
6031;SDS011;3044;43.232;27.972;2022-09-09T02:32:56;6.70;;;2.20;;
6031;SDS011;3044;43.232;27.972;2022-09-09T02:35:26;4.60;;;2.00;;
6031;SDS011;3044;43.232;27.972;2022-09-09T02:37:56;2.83;;;1.70;;
6031;SDS011;3044;43.232;27.972;2022-09-09T02:40:29;11.13;;;1.70;;
6031;SDS011;3044;43.232;27.972;2022-09-09T02:42:56;2.37;;;1.70;;
6031;SDS011;3044;43.232;27.972;2022-09-09T02:45:27;3.80;;;2.13;;
6031;SDS011;3044;43.232;27.972;2022-09-09T02:48:03;2.20;;;1.70;;
6031;SDS011;3044;43.232;27.972;2022-09-09T02:50:40;2.03;;;1.93;;
6031;SDS011;3044;43.232;27.972;2022-09-09T02:53:16;3.93;;;1.63;;
6031;SDS011;3044;43.232;27.972;2022-09-09T02:55:46;1.70;;;1.60;;
6031;SDS011;3044;43.232;27.972;2022-09-09T02:58:15;2.00;;;1.90;;
6031;SDS011;3044;43.232;27.972;2022-09-09T03:00:47;2.17;;;1.70;;
6031;SDS011;3044;43.232;27.972;2022-09-09T03:03:15;4.37;;;2.20;;
6031;SDS011;3044;43.232;27.972;2022-09-09T03:05:45;2.43;;;2.03;;
6031;SDS011;3044;43.232;27.972;2022-09-09T03:08:12;2.80;;;1.30;;
6031;SDS011;3044;43.232;27.972;2022-09-09T03:10:40;6.50;;;1.67;;
6031;SDS011;3044;43.232;27.972;2022-09-09T03:13:07;1.97;;;1.67;;
6031;SDS011;3044;43.232;27.972;2022-09-09T03:15:34;1.53;;;1.33;;
6031;SDS011;3044;43.232;27.972;2022-09-09T03:18:03;5.73;;;2.13;;
6031;SDS011;3044;43.232;27.972;2022-09-09T03:20:31;3.50;;;1.73;;
6031;SDS011;3044;43.232;27.972;2022-09-09T03:22:58;3.40;;;2.23;;
6031;SDS011;3044;43.232;27.972;2022-09-09T03:25:27;3.20;;;2.23;;
6031;SDS011;3044;43.232;27.972;2022-09-09T03:27:55;6.33;;;1.87;;
6031;SDS011;3044;43.232;27.972;2022-09-09T03:30:22;2.87;;;2.30;;
6031;SDS011;3044;43.232;27.972;2022-09-09T03:32:50;7.87;;;2.20;;
6031;SDS011;3044;43.232;27.972;2022-09-09T03:35:19;5.17;;;1.80;;
6031;SDS011;3044;43.232;27.972;2022-09-09T03:37:46;2.57;;;2.10;;
6031;SDS011;3044;43.232;27.972;2022-09-09T03:40:14;4.10;;;1.80;;
6031;SDS011;3044;43.232;27.972;2022-09-09T03:42:41;2.17;;;1.97;;
6031;SDS011;3044;43.232;27.972;2022-09-09T03:45:09;1.83;;;1.73;;
6031;SDS011;3044;43.232;27.972;2022-09-09T03:47:37;5.80;;;2.30;;
6031;SDS011;3044;43.232;27.972;2022-09-09T03:50:05;3.73;;;2.00;;
6031;SDS011;3044;43.232;27.972;2022-09-09T03:52:36;1.83;;;1.73;;
6031;SDS011;3044;43.232;27.972;2022-09-09T03:55:03;4.07;;;2.13;;
6031;SDS011;3044;43.232;27.972;2022-09-09T03:57:31;2.90;;;1.67;;
6031;SDS011;3044;43.232;27.972;2022-09-09T04:00:01;10.53;;;2.33;;
6031;SDS011;3044;43.232;27.972;2022-09-09T04:02:30;9.63;;;2.53;;
6031;SDS011;3044;43.232;27.972;2022-09-09T04:04:57;1.93;;;1.60;;
6031;SDS011;3044;43.232;27.972;2022-09-09T04:07:25;1.33;;;1.23;;
6031;SDS011;3044;43.232;27.972;2022-09-09T04:09:55;4.93;;;2.20;;
6031;SDS011;3044;43.232;27.972;2022-09-09T04:12:22;2.07;;;1.87;;
6031;SDS011;3044;43.232;27.972;2022-09-09T04:14:49;3.20;;;1.80;;
6031;SDS011;3044;43.232;27.972;2022-09-09T04:17:16;4.93;;;2.00;;
6031;SDS011;3044;43.232;27.972;2022-09-09T04:19:43;5.57;;;2.20;;
6031;SDS011;3044;43.232;27.972;2022-09-09T04:22:11;7.23;;;3.97;;
6031;SDS011;3044;43.232;27.972;2022-09-09T04:24:38;3.57;;;2.47;;
6031;SDS011;3044;43.232;27.972;2022-09-09T04:27:07;5.47;;;2.00;;
6031;SDS011;3044;43.232;27.972;2022-09-09T04:29:34;4.80;;;1.87;;
6031;SDS011;3044;43.232;27.972;2022-09-09T04:32:01;6.33;;;1.83;;
6031;SDS011;3044;43.232;27.972;2022-09-09T04:34:28;3.57;;;1.93;;
6031;SDS011;3044;43.232;27.972;2022-09-09T04:36:56;2.07;;;1.90;;
6031;SDS011;3044;43.232;27.972;2022-09-09T04:39:25;3.93;;;1.97;;
6031;SDS011;3044;43.232;27.972;2022-09-09T04:41:52;5.47;;;1.60;;
6031;SDS011;3044;43.232;27.972;2022-09-09T04:44:22;2.17;;;1.93;;
6031;SDS011;3044;43.232;27.972;2022-09-09T04:46:49;5.63;;;2.20;;
6031;SDS011;3044;43.232;27.972;2022-09-09T04:49:16;2.30;;;1.70;;
6031;SDS011;3044;43.232;27.972;2022-09-09T04:51:43;5.43;;;1.67;;
6031;SDS011;3044;43.232;27.972;2022-09-09T04:54:11;5.33;;;1.80;;
6031;SDS011;3044;43.232;27.972;2022-09-09T04:56:38;5.23;;;1.97;;
6031;SDS011;3044;43.232;27.972;2022-09-09T04:59:07;11.43;;;2.03;;
6031;SDS011;3044;43.232;27.972;2022-09-09T05:01:36;2.20;;;2.00;;
6031;SDS011;3044;43.232;27.972;2022-09-09T05:04:03;4.50;;;1.70;;
6031;SDS011;3044;43.232;27.972;2022-09-09T05:06:30;3.77;;;2.00;;
6031;SDS011;3044;43.232;27.972;2022-09-09T05:08:58;3.80;;;1.80;;
6031;SDS011;3044;43.232;27.972;2022-09-09T05:11:26;3.63;;;2.00;;
6031;SDS011;3044;43.232;27.972;2022-09-09T05:13:55;1.63;;;1.37;;
6031;SDS011;3044;43.232;27.972;2022-09-09T05:16:23;2.83;;;1.80;;
6031;SDS011;3044;43.232;27.972;2022-09-09T05:18:51;6.40;;;1.50;;
6031;SDS011;3044;43.232;27.972;2022-09-09T05:21:19;3.03;;;1.37;;
6031;SDS011;3044;43.232;27.972;2022-09-09T05:23:48;2.87;;;1.50;;
6031;SDS011;3044;43.232;27.972;2022-09-09T05:26:16;4.80;;;1.47;;
6031;SDS011;3044;43.232;27.972;2022-09-09T06:09:55;7.23;;;1.63;;
6031;SDS011;3044;43.232;27.972;2022-09-09T06:12:25;2.00;;;1.47;;
6031;SDS011;3044;43.232;27.972;2022-09-09T06:14:52;3.63;;;1.57;;
6031;SDS011;3044;43.232;27.972;2022-09-09T06:17:19;2.27;;;1.40;;
6031;SDS011;3044;43.232;27.972;2022-09-09T06:19:46;3.83;;;1.50;;
6031;SDS011;3044;43.232;27.972;2022-09-09T06:22:13;1.60;;;1.50;;
6031;SDS011;3044;43.232;27.972;2022-09-09T06:24:41;1.60;;;1.50;;
6031;SDS011;3044;43.232;27.972;2022-09-09T06:27:11;1.83;;;1.13;;
6031;SDS011;3044;43.232;27.972;2022-09-09T06:29:39;3.00;;;2.07;;
6031;SDS011;3044;43.232;27.972;2022-09-09T06:32:06;9.37;;;1.80;;
6031;SDS011;3044;43.232;27.972;2022-09-09T06:34:34;3.20;;;1.60;;
6031;SDS011;3044;43.232;27.972;2022-09-09T06:37:01;5.37;;;1.60;;
6031;SDS011;3044;43.232;27.972;2022-09-09T06:39:29;2.57;;;1.50;;
6031;SDS011;3044;43.232;27.972;2022-09-09T06:41:56;2.63;;;1.50;;
6031;SDS011;3044;43.232;27.972;2022-09-09T06:44:25;1.57;;;1.47;;
6031;SDS011;3044;43.232;27.972;2022-09-09T06:46:53;2.80;;;1.67;;
6031;SDS011;3044;43.232;27.972;2022-09-09T06:49:20;7.83;;;1.43;;
6031;SDS011;3044;43.232;27.972;2022-09-09T06:51:47;4.20;;;1.70;;
6031;SDS011;3044;43.232;27.972;2022-09-09T06:54:14;4.73;;;1.83;;
6031;SDS011;3044;43.232;27.972;2022-09-09T06:56:41;4.43;;;1.87;;
6031;SDS011;3044;43.232;27.972;2022-09-09T06:59:10;4.47;;;1.33;;
6031;SDS011;3044;43.232;27.972;2022-09-09T07:01:40;3.87;;;1.70;;
6031;SDS011;3044;43.232;27.972;2022-09-09T07:04:09;6.40;;;1.57;;
6031;SDS011;3044;43.232;27.972;2022-09-09T07:06:37;6.10;;;1.30;;
6031;SDS011;3044;43.232;27.972;2022-09-09T07:09:06;3.30;;;1.77;;
6031;SDS011;3044;43.232;27.972;2022-09-09T07:11:36;2.50;;;1.47;;
6031;SDS011;3044;43.232;27.972;2022-09-09T07:14:06;3.07;;;1.50;;
6031;SDS011;3044;43.232;27.972;2022-09-09T07:16:34;6.40;;;1.60;;
6031;SDS011;3044;43.232;27.972;2022-09-09T07:19:03;3.10;;;1.93;;
6031;SDS011;3044;43.232;27.972;2022-09-09T07:21:31;1.53;;;1.43;;
6031;SDS011;3044;43.232;27.972;2022-09-09T07:23:59;3.40;;;1.40;;
6031;SDS011;3044;43.232;27.972;2022-09-09T07:26:27;11.30;;;1.70;;
6031;SDS011;3044;43.232;27.972;2022-09-09T07:28:55;3.60;;;1.50;;
6031;SDS011;3044;43.232;27.972;2022-09-09T07:31:23;2.37;;;1.30;;
6031;SDS011;3044;43.232;27.972;2022-09-09T07:33:51;2.80;;;1.87;;
6031;SDS011;3044;43.232;27.972;2022-09-09T07:36:20;7.87;;;1.70;;
6031;SDS011;3044;43.232;27.972;2022-09-09T07:38:50;2.03;;;1.53;;
6031;SDS011;3044;43.232;27.972;2022-09-09T07:41:19;3.03;;;1.43;;
6031;SDS011;3044;43.232;27.972;2022-09-09T07:43:49;5.23;;;1.50;;
6031;SDS011;3044;43.232;27.972;2022-09-09T07:46:19;3.40;;;1.43;;
6031;SDS011;3044;43.232;27.972;2022-09-09T07:48:49;2.20;;;1.47;;
6031;SDS011;3044;43.232;27.972;2022-09-09T07:51:18;7.60;;;1.43;;
6031;SDS011;3044;43.232;27.972;2022-09-09T07:53:48;2.73;;;1.80;;
6031;SDS011;3044;43.232;27.972;2022-09-09T07:56:18;2.13;;;1.30;;
6031;SDS011;3044;43.232;27.972;2022-09-09T07:58:48;8.20;;;1.40;;
6031;SDS011;3044;43.232;27.972;2022-09-09T08:01:17;2.50;;;1.27;;
6031;SDS011;3044;43.232;27.972;2022-09-09T08:03:47;4.63;;;1.20;;
6031;SDS011;3044;43.232;27.972;2022-09-09T08:06:22;1.77;;;1.40;;
6031;SDS011;3044;43.232;27.972;2022-09-09T08:08:50;5.80;;;1.77;;
6031;SDS011;3044;43.232;27.972;2022-09-09T08:11:18;2.17;;;1.17;;
6031;SDS011;3044;43.232;27.972;2022-09-09T08:13:45;4.67;;;1.10;;
6031;SDS011;3044;43.232;27.972;2022-09-09T08:16:15;2.13;;;1.40;;
6031;SDS011;3044;43.232;27.972;2022-09-09T08:18:46;1.17;;;1.07;;
6031;SDS011;3044;43.232;27.972;2022-09-09T08:21:14;4.10;;;1.40;;
6031;SDS011;3044;43.232;27.972;2022-09-09T08:23:45;4.60;;;1.33;;
6031;SDS011;3044;43.232;27.972;2022-09-09T08:26:15;1.80;;;1.70;;
6031;SDS011;3044;43.232;27.972;2022-09-09T08:28:48;1.30;;;1.10;;
6031;SDS011;3044;43.232;27.972;2022-09-09T08:31:17;2.30;;;1.47;;
6031;SDS011;3044;43.232;27.972;2022-09-09T08:33:46;1.97;;;1.20;;
6031;SDS011;3044;43.232;27.972;2022-09-09T08:36:14;1.10;;;1.00;;
6031;SDS011;3044;43.232;27.972;2022-09-09T08:38:42;3.83;;;1.60;;
6031;SDS011;3044;43.232;27.972;2022-09-09T08:44:06;1.50;;;1.40;;
6031;SDS011;3044;43.232;27.972;2022-09-09T08:46:40;4.90;;;1.50;;
6031;SDS011;3044;43.232;27.972;2022-09-09T08:49:18;4.50;;;1.67;;
6031;SDS011;3044;43.232;27.972;2022-09-09T08:51:58;4.37;;;1.53;;
6031;SDS011;3044;43.232;27.972;2022-09-09T08:54:27;4.10;;;1.47;;
6031;SDS011;3044;43.232;27.972;2022-09-09T08:57:01;5.47;;;1.40;;
6031;SDS011;3044;43.232;27.972;2022-09-09T08:59:29;6.47;;;1.53;;
6031;SDS011;3044;43.232;27.972;2022-09-09T09:02:00;3.03;;;1.73;;
6031;SDS011;3044;43.232;27.972;2022-09-09T09:04:47;3.00;;;1.10;;
6031;SDS011;3044;43.232;27.972;2022-09-09T09:07:29;4.23;;;1.93;;
6031;SDS011;3044;43.232;27.972;2022-09-09T09:10:10;7.80;;;1.90;;
6031;SDS011;3044;43.232;27.972;2022-09-09T09:12:49;9.67;;;2.10;;
6031;SDS011;3044;43.232;27.972;2022-09-09T09:15:18;2.00;;;1.87;;
6031;SDS011;3044;43.232;27.972;2022-09-09T09:17:47;3.10;;;1.17;;
6031;SDS011;3044;43.232;27.972;2022-09-09T09:20:15;4.93;;;1.50;;
6031;SDS011;3044;43.232;27.972;2022-09-09T09:22:48;3.10;;;1.40;;
6031;SDS011;3044;43.232;27.972;2022-09-09T09:25:18;1.83;;;1.63;;
6031;SDS011;3044;43.232;27.972;2022-09-09T09:27:51;7.47;;;1.53;;
6031;SDS011;3044;43.232;27.972;2022-09-09T09:30:31;1.40;;;1.30;;
6031;SDS011;3044;43.232;27.972;2022-09-09T09:33:05;7.50;;;1.33;;
6031;SDS011;3044;43.232;27.972;2022-09-09T09:35:42;6.47;;;2.10;;
6031;SDS011;3044;43.232;27.972;2022-09-09T09:38:12;11.10;;;1.57;;
6031;SDS011;3044;43.232;27.972;2022-09-09T09:40:50;2.17;;;1.60;;
6031;SDS011;3044;43.232;27.972;2022-09-09T09:43:21;1.30;;;1.20;;
6031;SDS011;3044;43.232;27.972;2022-09-09T09:45:51;2.80;;;1.10;;
6031;SDS011;3044;43.232;27.972;2022-09-09T09:48:19;4.50;;;1.20;;
6031;SDS011;3044;43.232;27.972;2022-09-09T09:50:46;4.83;;;1.33;;
6031;SDS011;3044;43.232;27.972;2022-09-09T09:53:18;4.23;;;1.50;;
6031;SDS011;3044;43.232;27.972;2022-09-09T09:55:51;1.80;;;1.70;;
6031;SDS011;3044;43.232;27.972;2022-09-09T09:58:23;2.27;;;1.30;;
6031;SDS011;3044;43.232;27.972;2022-09-09T10:00:53;5.90;;;1.90;;
6031;SDS011;3044;43.232;27.972;2022-09-09T10:03:22;4.43;;;1.67;;
6031;SDS011;3044;43.232;27.972;2022-09-09T10:05:51;4.77;;;1.47;;
6031;SDS011;3044;43.232;27.972;2022-09-09T10:08:19;3.43;;;1.40;;
6031;SDS011;3044;43.232;27.972;2022-09-09T10:10:55;1.83;;;1.27;;
6031;SDS011;3044;43.232;27.972;2022-09-09T10:13:46;3.77;;;1.50;;
6031;SDS011;3044;43.232;27.972;2022-09-09T10:16:29;1.83;;;1.23;;
6031;SDS011;3044;43.232;27.972;2022-09-09T10:19:09;1.60;;;1.30;;
6031;SDS011;3044;43.232;27.972;2022-09-09T10:21:51;8.80;;;1.57;;
6031;SDS011;3044;43.232;27.972;2022-09-09T10:24:35;2.80;;;1.57;;
6031;SDS011;3044;43.232;27.972;2022-09-09T10:27:15;4.83;;;1.50;;
6031;SDS011;3044;43.232;27.972;2022-09-09T10:29:59;2.63;;;2.10;;
6031;SDS011;3044;43.232;27.972;2022-09-09T10:32:41;2.07;;;1.17;;
6031;SDS011;3044;43.232;27.972;2022-09-09T10:35:14;3.10;;;1.83;;
6031;SDS011;3044;43.232;27.972;2022-09-09T10:40:42;3.53;;;2.23;;
6031;SDS011;3044;43.232;27.972;2022-09-09T10:43:19;2.53;;;1.53;;
6031;SDS011;3044;43.232;27.972;2022-09-09T10:45:57;1.50;;;1.40;;
6031;SDS011;3044;43.232;27.972;2022-09-09T10:48:36;3.50;;;1.60;;
6031;SDS011;3044;43.232;27.972;2022-09-09T10:51:22;4.53;;;1.73;;
6031;SDS011;3044;43.232;27.972;2022-09-09T10:54:02;1.70;;;1.30;;
6031;SDS011;3044;43.232;27.972;2022-09-09T10:56:38;7.03;;;1.90;;
6031;SDS011;3044;43.232;27.972;2022-09-09T10:59:09;3.50;;;1.87;;
6031;SDS011;3044;43.232;27.972;2022-09-09T11:01:43;2.13;;;1.37;;
6031;SDS011;3044;43.232;27.972;2022-09-09T11:04:13;3.53;;;1.37;;
6031;SDS011;3044;43.232;27.972;2022-09-09T11:06:47;2.27;;;1.83;;
6031;SDS011;3044;43.232;27.972;2022-09-09T11:09:19;3.93;;;1.60;;
6031;SDS011;3044;43.232;27.972;2022-09-09T11:11:51;2.13;;;1.77;;
6031;SDS011;3044;43.232;27.972;2022-09-09T11:14:21;8.90;;;2.40;;
6031;SDS011;3044;43.232;27.972;2022-09-09T11:16:57;2.53;;;1.53;;
6031;SDS011;3044;43.232;27.972;2022-09-09T11:19:28;5.03;;;1.77;;
6031;SDS011;3044;43.232;27.972;2022-09-09T11:22:00;3.83;;;2.00;;
6031;SDS011;3044;43.232;27.972;2022-09-09T11:24:33;9.13;;;1.97;;
6031;SDS011;3044;43.232;27.972;2022-09-09T11:27:05;4.20;;;1.90;;
6031;SDS011;3044;43.232;27.972;2022-09-09T11:29:46;4.93;;;1.63;;
6031;SDS011;3044;43.232;27.972;2022-09-09T11:32:44;4.00;;;1.73;;
6031;SDS011;3044;43.232;27.972;2022-09-09T11:35:30;2.93;;;1.60;;
6031;SDS011;3044;43.232;27.972;2022-09-09T11:38:16;1.80;;;1.70;;
6031;SDS011;3044;43.232;27.972;2022-09-09T11:40:53;1.97;;;1.80;;
6031;SDS011;3044;43.232;27.972;2022-09-09T11:43:23;5.23;;;1.63;;
6031;SDS011;3044;43.232;27.972;2022-09-09T11:45:54;3.47;;;1.40;;
6031;SDS011;3044;43.232;27.972;2022-09-09T11:48:27;3.90;;;2.03;;
6031;SDS011;3044;43.232;27.972;2022-09-09T11:50:59;3.63;;;1.77;;
6031;SDS011;3044;43.232;27.972;2022-09-09T11:53:30;6.70;;;2.10;;
6031;SDS011;3044;43.232;27.972;2022-09-09T11:56:11;2.07;;;1.70;;
6031;SDS011;3044;43.232;27.972;2022-09-09T11:58:43;6.37;;;1.90;;
6031;SDS011;3044;43.232;27.972;2022-09-09T12:01:28;2.77;;;1.60;;
6031;SDS011;3044;43.232;27.972;2022-09-09T12:06:58;6.50;;;1.40;;
6031;SDS011;3044;43.232;27.972;2022-09-09T12:09:32;2.53;;;1.83;;
6031;SDS011;3044;43.232;27.972;2022-09-09T12:12:22;4.13;;;1.63;;
6031;SDS011;3044;43.232;27.972;2022-09-09T12:14:56;2.40;;;1.20;;
6031;SDS011;3044;43.232;27.972;2022-09-09T12:17:28;6.13;;;1.60;;
6031;SDS011;3044;43.232;27.972;2022-09-09T12:20:02;1.47;;;1.37;;
6031;SDS011;3044;43.232;27.972;2022-09-09T12:22:37;5.17;;;1.83;;
6031;SDS011;3044;43.232;27.972;2022-09-09T12:25:16;2.13;;;1.23;;
6031;SDS011;3044;43.232;27.972;2022-09-09T12:28:00;2.80;;;1.77;;
6031;SDS011;3044;43.232;27.972;2022-09-09T12:30:34;5.47;;;2.33;;
6031;SDS011;3044;43.232;27.972;2022-09-09T12:33:09;8.90;;;4.50;;
6031;SDS011;3044;43.232;27.972;2022-09-09T12:35:39;5.67;;;2.53;;
6031;SDS011;3044;43.232;27.972;2022-09-09T12:38:10;2.70;;;1.60;;
6031;SDS011;3044;43.232;27.972;2022-09-09T12:40:41;4.07;;;1.50;;
6031;SDS011;3044;43.232;27.972;2022-09-09T12:43:18;1.90;;;1.63;;
6031;SDS011;3044;43.232;27.972;2022-09-09T12:45:47;6.50;;;4.80;;
6031;SDS011;3044;43.232;27.972;2022-09-09T12:48:21;4.63;;;2.40;;
6031;SDS011;3044;43.232;27.972;2022-09-09T12:50:57;9.97;;;5.50;;
6031;SDS011;3044;43.232;27.972;2022-09-09T12:53:25;4.80;;;4.33;;
6031;SDS011;3044;43.232;27.972;2022-09-09T12:55:56;4.80;;;2.30;;
6031;SDS011;3044;43.232;27.972;2022-09-09T12:58:25;1.87;;;1.77;;
6031;SDS011;3044;43.232;27.972;2022-09-09T13:00:58;8.57;;;3.73;;
6031;SDS011;3044;43.232;27.972;2022-09-09T13:03:26;2.73;;;2.10;;
6031;SDS011;3044;43.232;27.972;2022-09-09T13:05:53;5.00;;;2.20;;
6031;SDS011;3044;43.232;27.972;2022-09-09T13:08:36;2.90;;;2.50;;
6031;SDS011;3044;43.232;27.972;2022-09-09T13:11:04;3.23;;;2.67;;
6031;SDS011;3044;43.232;27.972;2022-09-09T13:13:37;13.90;;;4.30;;
6031;SDS011;3044;43.232;27.972;2022-09-09T13:16:06;5.77;;;2.53;;
6031;SDS011;3044;43.232;27.972;2022-09-09T13:18:44;4.67;;;1.90;;
6031;SDS011;3044;43.232;27.972;2022-09-09T13:21:13;3.83;;;2.03;;
6031;SDS011;3044;43.232;27.972;2022-09-09T13:23:40;4.40;;;2.60;;
6031;SDS011;3044;43.232;27.972;2022-09-09T13:26:20;5.20;;;2.40;;
6031;SDS011;3044;43.232;27.972;2022-09-09T13:28:49;4.13;;;2.80;;
6031;SDS011;3044;43.232;27.972;2022-09-09T13:31:21;9.83;;;1.97;;
6031;SDS011;3044;43.232;27.972;2022-09-09T13:33:52;5.63;;;2.53;;
6031;SDS011;3044;43.232;27.972;2022-09-09T13:36:29;7.23;;;2.20;;
6031;SDS011;3044;43.232;27.972;2022-09-09T13:38:58;4.83;;;2.20;;
6031;SDS011;3044;43.232;27.972;2022-09-09T13:41:28;4.17;;;2.00;;
6031;SDS011;3044;43.232;27.972;2022-09-09T13:43:58;4.60;;;1.77;;
6031;SDS011;3044;43.232;27.972;2022-09-09T13:46:32;5.77;;;2.73;;
6031;SDS011;3044;43.232;27.972;2022-09-09T13:49:02;3.13;;;2.37;;
6031;SDS011;3044;43.232;27.972;2022-09-09T13:51:49;7.90;;;3.37;;
6031;SDS011;3044;43.232;27.972;2022-09-09T13:54:19;4.53;;;2.63;;
6031;SDS011;3044;43.232;27.972;2022-09-09T13:56:48;4.70;;;2.60;;
6031;SDS011;3044;43.232;27.972;2022-09-09T13:59:16;4.70;;;3.00;;
6031;SDS011;3044;43.232;27.972;2022-09-09T14:01:46;3.97;;;3.70;;
6031;SDS011;3044;43.232;27.972;2022-09-09T14:04:14;4.27;;;3.30;;
6031;SDS011;3044;43.232;27.972;2022-09-09T14:06:42;4.10;;;2.97;;
6031;SDS011;3044;43.232;27.972;2022-09-09T14:09:11;6.00;;;3.17;;
6031;SDS011;3044;43.232;27.972;2022-09-09T14:11:41;3.27;;;2.97;;
6031;SDS011;3044;43.232;27.972;2022-09-09T14:14:09;6.87;;;3.57;;
6031;SDS011;3044;43.232;27.972;2022-09-09T14:16:36;5.00;;;3.17;;
6031;SDS011;3044;43.232;27.972;2022-09-09T14:19:04;3.47;;;3.17;;
6031;SDS011;3044;43.232;27.972;2022-09-09T14:21:31;3.70;;;3.40;;
6031;SDS011;3044;43.232;27.972;2022-09-09T14:23:58;4.77;;;4.33;;
6031;SDS011;3044;43.232;27.972;2022-09-09T14:26:27;3.10;;;2.90;;
6031;SDS011;3044;43.232;27.972;2022-09-09T14:28:55;5.53;;;3.60;;
6031;SDS011;3044;43.232;27.972;2022-09-09T14:31:23;6.43;;;3.20;;
6031;SDS011;3044;43.232;27.972;2022-09-09T14:33:50;2.77;;;2.67;;
6031;SDS011;3044;43.232;27.972;2022-09-09T14:36:18;6.67;;;3.60;;
6031;SDS011;3044;43.232;27.972;2022-09-09T14:38:45;5.33;;;3.20;;
6031;SDS011;3044;43.232;27.972;2022-09-09T14:41:13;4.27;;;3.27;;
6031;SDS011;3044;43.232;27.972;2022-09-09T14:43:44;4.20;;;3.90;;
6031;SDS011;3044;43.232;27.972;2022-09-09T14:46:12;3.63;;;3.07;;
6031;SDS011;3044;43.232;27.972;2022-09-09T14:48:41;3.40;;;3.10;;
6031;SDS011;3044;43.232;27.972;2022-09-09T14:51:11;6.47;;;3.10;;
6031;SDS011;3044;43.232;27.972;2022-09-09T14:53:41;6.93;;;3.67;;
6031;SDS011;3044;43.232;27.972;2022-09-09T14:56:09;3.43;;;3.00;;
6031;SDS011;3044;43.232;27.972;2022-09-09T14:58:38;3.53;;;3.20;;
6031;SDS011;3044;43.232;27.972;2022-09-09T15:01:08;3.60;;;2.83;;
6031;SDS011;3044;43.232;27.972;2022-09-09T15:03:36;6.27;;;3.30;;
6031;SDS011;3044;43.232;27.972;2022-09-09T15:06:04;3.17;;;2.97;;
6031;SDS011;3044;43.232;27.972;2022-09-09T15:08:34;3.63;;;2.90;;
6031;SDS011;3044;43.232;27.972;2022-09-09T15:11:01;7.53;;;2.80;;
6031;SDS011;3044;43.232;27.972;2022-09-09T15:13:29;4.00;;;2.70;;
6031;SDS011;3044;43.232;27.972;2022-09-09T15:16:00;3.37;;;3.07;;
6031;SDS011;3044;43.232;27.972;2022-09-09T15:18:32;6.90;;;4.03;;
6031;SDS011;3044;43.232;27.972;2022-09-09T15:21:01;8.83;;;5.67;;
6031;SDS011;3044;43.232;27.972;2022-09-09T15:23:31;11.97;;;8.20;;
6031;SDS011;3044;43.232;27.972;2022-09-09T15:25:58;5.47;;;4.43;;
6031;SDS011;3044;43.232;27.972;2022-09-09T15:40:15;6.03;;;3.30;;
6031;SDS011;3044;43.232;27.972;2022-09-09T15:42:43;4.87;;;2.83;;
6031;SDS011;3044;43.232;27.972;2022-09-09T15:45:11;3.30;;;2.93;;
6031;SDS011;3044;43.232;27.972;2022-09-09T15:47:40;3.10;;;2.80;;
6031;SDS011;3044;43.232;27.972;2022-09-09T15:50:07;10.10;;;3.27;;
6031;SDS011;3044;43.232;27.972;2022-09-09T15:52:34;4.57;;;2.70;;
6031;SDS011;3044;43.232;27.972;2022-09-09T15:55:02;6.23;;;2.97;;
6031;SDS011;3044;43.232;27.972;2022-09-09T15:57:31;2.97;;;2.70;;
6031;SDS011;3044;43.232;27.972;2022-09-09T15:59:58;7.83;;;3.03;;
6031;SDS011;3044;43.232;27.972;2022-09-09T16:02:26;3.37;;;3.17;;
6031;SDS011;3044;43.232;27.972;2022-09-09T16:04:53;4.37;;;3.40;;
6031;SDS011;3044;43.232;27.972;2022-09-09T16:07:20;6.43;;;3.43;;
6031;SDS011;3044;43.232;27.972;2022-09-09T16:09:47;3.80;;;3.50;;
6031;SDS011;3044;43.232;27.972;2022-09-09T16:12:16;4.30;;;3.43;;
6031;SDS011;3044;43.232;27.972;2022-09-09T16:14:45;5.20;;;4.60;;
6031;SDS011;3044;43.232;27.972;2022-09-09T16:17:12;4.50;;;4.10;;
6031;SDS011;3044;43.232;27.972;2022-09-09T16:19:40;4.97;;;2.90;;
6031;SDS011;3044;43.232;27.972;2022-09-09T16:22:08;4.73;;;3.90;;
6031;SDS011;3044;43.232;27.972;2022-09-09T16:24:35;10.00;;;3.47;;
6031;SDS011;3044;43.232;27.972;2022-09-09T16:27:02;3.60;;;3.30;;